createdAt,value
2018-07-30T00:02:04.393Z,25.40
2018-07-30T00:06:58.966Z,25.30
2018-07-30T00:11:53.469Z,25.30
2018-07-30T00:16:47.940Z,25.10
2018-07-30T00:21:42.829Z,25.10
2018-07-30T00:26:37.315Z,25.10
2018-07-30T00:31:31.821Z,25.00
2018-07-30T00:36:28.860Z,24.90
2018-07-30T00:41:23.822Z,24.70
2018-07-30T00:46:18.399Z,24.40
2018-07-30T00:56:07.174Z,24.10
2018-07-30T01:01:01.810Z,24.00
2018-07-30T01:05:56.349Z,23.80
2018-07-30T01:10:51.123Z,23.60
2018-07-30T01:15:46.466Z,23.50
2018-07-30T01:25:36.111Z,23.20
2018-07-30T01:30:30.814Z,23.20
2018-07-30T01:35:25.576Z,23.10
2018-07-30T01:40:20.143Z,23.00
2018-07-30T01:45:14.677Z,22.90
2018-07-30T01:50:09.257Z,22.80
2018-07-30T01:55:03.807Z,22.70
2018-07-30T01:59:58.240Z,22.70
2018-07-30T02:04:52.921Z,22.80
2018-07-30T02:09:48.257Z,22.80
2018-07-30T02:14:42.748Z,22.80
2018-07-30T02:19:37.258Z,22.80
2018-07-30T02:24:32.056Z,22.70
2018-07-30T02:29:26.951Z,22.60
2018-07-30T02:34:22.203Z,22.50
2018-07-30T02:39:16.842Z,22.40
2018-07-30T02:44:11.512Z,22.30
2018-07-30T02:49:06.949Z,22.10
2018-07-30T02:54:01.522Z,22.10
2018-07-30T02:58:56.197Z,22.10
2018-07-30T03:03:50.880Z,21.90
2018-07-30T03:08:45.671Z,21.90
2018-07-30T03:13:41.017Z,21.80
2018-07-30T03:18:35.514Z,21.70
2018-07-30T03:23:30.140Z,21.60
2018-07-30T03:28:24.621Z,21.70
2018-07-30T03:33:19.051Z,21.70
2018-07-30T03:38:13.505Z,21.60
2018-07-30T03:43:08.324Z,21.50
2018-07-30T03:48:03.164Z,21.50
2018-07-30T03:52:57.642Z,21.40
2018-07-30T03:57:52.183Z,21.40
2018-07-30T04:02:47.613Z,21.40
2018-07-30T04:07:42.435Z,21.40
2018-07-30T04:12:36.960Z,21.40
2018-07-30T04:17:31.741Z,21.40
2018-07-30T04:22:26.193Z,21.40
2018-07-30T04:32:15.283Z,21.50
2018-07-30T04:37:09.794Z,21.50
2018-07-30T04:42:04.404Z,21.50
2018-07-30T04:46:58.905Z,21.60
2018-07-30T04:51:53.422Z,21.70
2018-07-30T05:01:42.819Z,21.70
2018-07-30T05:06:37.793Z,21.80
2018-07-30T05:11:32.324Z,22.00
2018-07-30T05:16:27.337Z,22.10
2018-07-30T05:21:21.765Z,22.30
2018-07-30T05:26:16.577Z,22.30
2018-07-30T05:31:11.154Z,22.50
2018-07-30T05:36:05.924Z,22.70
2018-07-30T05:45:54.532Z,27.40
2018-07-30T05:50:49.249Z,30.40
2018-07-30T05:55:43.983Z,32.40
2018-07-30T06:05:33.301Z,36.20
2018-07-30T06:10:28.656Z,37.90
2018-07-30T06:15:23.594Z,39.40
2018-07-30T06:20:18.600Z,41.00
2018-07-30T06:25:13.345Z,42.30
2018-07-30T06:30:08.650Z,44.20
2018-07-30T06:35:05.180Z,45.90
2018-07-30T06:40:00.056Z,47.50
2018-07-30T06:44:54.995Z,46.40
2018-07-30T06:49:49.884Z,43.90
2018-07-30T06:54:44.605Z,41.80
2018-07-30T06:59:39.488Z,40.30
2018-07-30T07:04:34.338Z,38.90
2018-07-30T07:09:29.123Z,38.10
2018-07-30T07:14:23.836Z,38.30
2018-07-30T07:19:18.671Z,39.50
2018-07-30T07:24:13.468Z,41.80
2018-07-30T07:29:08.478Z,43.40
2018-07-30T07:34:04.073Z,45.00
2018-07-30T07:43:54.353Z,48.00
2018-07-30T07:48:49.166Z,47.40
2018-07-30T07:53:43.884Z,46.10
2018-07-30T07:58:39.295Z,45.00
2018-07-30T08:03:34.270Z,44.60
2018-07-30T08:08:29.223Z,43.80
2018-07-30T08:13:23.986Z,43.10
2018-07-30T08:18:18.940Z,42.70
2018-07-30T08:23:13.961Z,42.60
2018-07-30T08:28:08.892Z,42.40
2018-07-30T08:33:04.256Z,43.00
2018-07-30T08:37:59.164Z,45.80
2018-07-30T08:42:53.919Z,48.00
2018-07-30T08:52:43.340Z,46.40
2018-07-30T09:02:32.898Z,44.40
2018-07-30T09:07:27.692Z,44.40
2018-07-30T09:12:22.475Z,45.00
2018-07-30T09:17:17.392Z,46.10
2018-07-30T09:22:12.446Z,49.60
2018-07-30T09:27:07.636Z,54.50
2018-07-30T09:32:07.122Z,56.20
2018-07-30T09:37:01.877Z,59.10
2018-07-30T09:46:51.312Z,59.70
2018-07-30T09:51:46.058Z,59.40
2018-07-30T09:56:41.800Z,57.70
2018-07-30T10:01:36.632Z,54.40
2018-07-30T10:06:31.712Z,48.20
2018-07-30T10:11:26.633Z,43.50
2018-07-30T10:16:25.373Z,41.10
2018-07-30T10:21:20.100Z,39.00
2018-07-30T10:26:14.998Z,37.60
2018-07-30T10:31:10.185Z,36.30
2018-07-30T10:36:04.920Z,35.60
2018-07-30T10:40:59.640Z,35.00
2018-07-30T10:45:54.568Z,34.40
2018-07-30T10:50:49.386Z,33.90
2018-07-30T10:55:44.134Z,33.80
2018-07-30T11:10:27.882Z,33.20
2018-07-30T11:25:11.822Z,33.00
2018-07-30T11:30:07.306Z,32.60
2018-07-30T11:35:02.053Z,32.60
2018-07-30T11:39:56.858Z,32.80
2018-07-30T11:44:51.761Z,33.10
2018-07-30T11:54:41.181Z,33.90
2018-07-30T12:04:30.733Z,34.40
2018-07-30T12:09:25.651Z,34.50
2018-07-30T12:14:20.396Z,34.50
2018-07-30T12:19:15.110Z,34.70
2018-07-30T12:24:09.842Z,35.10
2018-07-30T12:29:04.753Z,35.30
2018-07-30T12:33:59.540Z,35.50
2018-07-30T12:38:54.248Z,35.60
2018-07-30T12:43:49.425Z,36.00
2018-07-30T12:48:44.156Z,36.10
2018-07-30T12:53:39.069Z,36.00
2018-07-30T12:58:34.055Z,36.10
2018-07-30T13:13:18.245Z,36.60
2018-07-30T13:18:13.274Z,36.80
2018-07-30T13:23:08.237Z,36.60
2018-07-30T13:28:03.003Z,36.20
2018-07-30T13:32:58.284Z,35.70
2018-07-30T13:37:53.163Z,35.50
2018-07-30T13:42:47.899Z,35.30
2018-07-30T13:52:37.169Z,35.40
2018-07-30T13:57:32.086Z,35.60
2018-07-30T14:02:27.116Z,35.70
2018-07-30T14:07:22.004Z,35.70
2018-07-30T14:12:16.822Z,35.60
2018-07-30T14:17:11.539Z,35.60
2018-07-30T14:22:06.602Z,35.70
2018-07-30T14:27:01.515Z,35.90
2018-07-30T14:36:51.165Z,36.80
2018-07-30T14:41:46.380Z,37.30
2018-07-30T14:46:41.600Z,37.20
2018-07-30T14:51:36.390Z,36.90
2018-07-30T14:56:31.829Z,36.90
2018-07-30T15:06:21.349Z,37.10
2018-07-30T15:16:10.788Z,36.70
2018-07-30T15:21:05.548Z,36.40
2018-07-30T15:26:00.488Z,36.20
2018-07-30T15:30:55.381Z,35.90
2018-07-30T15:35:59.544Z,35.90
2018-07-30T15:40:54.290Z,36.30
2018-07-30T15:45:49.412Z,36.30
2018-07-30T15:50:44.289Z,36.60
2018-07-30T16:00:34.258Z,36.40
2018-07-30T16:05:29.084Z,36.00
2018-07-30T16:10:24.208Z,35.90
2018-07-30T16:15:19.136Z,35.90
2018-07-30T16:20:14.195Z,35.90
2018-07-30T16:30:03.751Z,35.90
2018-07-30T16:34:58.474Z,36.00
2018-07-30T16:39:53.853Z,35.80
2018-07-30T16:49:44.194Z,35.50
2018-07-30T16:59:34.689Z,35.00
2018-07-30T17:04:29.588Z,34.90
2018-07-30T17:09:24.817Z,34.70
2018-07-30T17:14:21.427Z,34.50
2018-07-30T17:24:11.018Z,34.30
2018-07-30T17:29:05.898Z,34.10
2018-07-30T17:34:00.979Z,33.90
2018-07-30T17:38:55.936Z,33.70
2018-07-30T17:43:50.854Z,33.50
2018-07-30T17:48:46.031Z,33.30
2018-07-30T17:53:40.734Z,33.10
2018-07-30T17:58:35.646Z,32.90
2018-07-30T18:03:30.670Z,32.70
2018-07-30T18:08:25.418Z,32.50
2018-07-30T18:13:20.148Z,32.30
2018-07-30T18:18:16.582Z,32.10
2018-07-30T18:23:11.543Z,32.00
2018-07-30T18:28:06.356Z,31.80
2018-07-30T18:33:01.309Z,31.60
2018-07-30T18:37:56.340Z,31.40
2018-07-30T18:52:40.680Z,30.80
2018-07-30T18:57:36.139Z,30.60
2018-07-30T19:02:32.464Z,30.40
2018-07-30T19:07:29.205Z,30.10
2018-07-30T19:12:25.219Z,29.80
2018-07-30T19:22:21.266Z,29.50
2018-07-30T19:27:18.069Z,29.20
2018-07-30T19:32:14.674Z,29.00
2018-07-30T19:37:11.011Z,28.80
2018-07-30T19:42:09.217Z,28.60
2018-07-30T19:47:06.673Z,28.40
2018-07-30T19:52:04.205Z,28.20
2018-07-30T19:57:00.280Z,28.00
2018-07-30T20:01:56.687Z,27.90
2018-07-30T20:06:52.905Z,27.80
2018-07-30T20:11:49.076Z,27.70
2018-07-30T20:16:45.117Z,27.60
2018-07-30T20:21:48.166Z,27.50
2018-07-30T20:26:44.329Z,27.40
2018-07-30T20:31:41.432Z,27.30
2018-07-30T20:36:37.138Z,27.20
2018-07-30T20:41:33.549Z,27.20
2018-07-30T20:46:29.599Z,27.10
2018-07-30T20:51:24.821Z,27.00
2018-07-30T20:56:20.510Z,26.90
2018-07-30T21:01:15.478Z,26.80
2018-07-30T21:06:10.507Z,26.70
2018-07-30T21:11:07.363Z,26.60
2018-07-30T21:16:03.776Z,26.50
2018-07-30T21:20:59.204Z,26.40
2018-07-30T21:25:54.883Z,26.20
2018-07-30T21:30:49.957Z,26.10
2018-07-30T21:35:45.261Z,26.10
2018-07-30T21:45:34.959Z,25.80
2018-07-30T21:50:30.540Z,25.80
2018-07-30T21:55:25.788Z,25.80
2018-07-30T22:00:25.233Z,25.70
2018-07-30T22:05:20.828Z,25.60
2018-07-30T22:10:15.966Z,25.60
2018-07-30T22:15:13.383Z,25.50
2018-07-30T22:20:09.884Z,25.50
2018-07-30T22:25:04.397Z,25.50
2018-07-30T22:30:00.304Z,25.50
2018-07-30T22:34:55.062Z,25.50
2018-07-30T22:39:50.821Z,25.50
2018-07-30T22:44:45.622Z,25.40
2018-07-30T22:49:40.919Z,25.30
2018-07-30T22:54:35.637Z,25.30
2018-07-30T22:59:30.588Z,25.20
2018-07-30T23:04:25.078Z,25.10
2018-07-30T23:09:19.820Z,25.10
2018-07-30T23:19:08.689Z,24.90
2018-07-30T23:24:11.679Z,24.80
2018-07-30T23:29:06.180Z,24.80
2018-07-30T23:34:00.649Z,24.70
2018-07-30T23:38:55.205Z,24.60
2018-07-30T23:43:50.979Z,24.60
2018-07-30T23:48:45.957Z,24.50
2018-07-30T23:53:40.436Z,24.40
2018-07-30T23:58:35.018Z,24.30
